sensor_id;sensor_type;location;lat;lon;timestamp;temperature;humidity
67131;HTU21D;54051;53.464;49.532;2023-02-11T00:01:52;-5.03;81.02
67131;HTU21D;54051;53.464;49.532;2023-02-11T00:04:18;-5.02;81.21
67131;HTU21D;54051;53.464;49.532;2023-02-11T00:06:43;-5.05;81.34
67131;HTU21D;54051;53.464;49.532;2023-02-11T00:09:09;-5.05;81.48
67131;HTU21D;54051;53.464;49.532;2023-02-11T00:11:35;-5.03;81.50
67131;HTU21D;54051;53.464;49.532;2023-02-11T00:14:02;-5.00;81.17
67131;HTU21D;54051;53.464;49.532;2023-02-11T00:16:29;-4.99;81.35
67131;HTU21D;54051;53.464;49.532;2023-02-11T00:19:00;-4.99;81.61
67131;HTU21D;54051;53.464;49.532;2023-02-11T00:21:26;-4.98;81.81
67131;HTU21D;54051;53.464;49.532;2023-02-11T00:23:52;-4.97;81.84
67131;HTU21D;54051;53.464;49.532;2023-02-11T00:26:23;-4.94;81.63
67131;HTU21D;54051;53.464;49.532;2023-02-11T00:28:50;-4.97;81.44
67131;HTU21D;54051;53.464;49.532;2023-02-11T00:31:17;-4.99;81.10
67131;HTU21D;54051;53.464;49.532;2023-02-11T00:33:43;-4.93;81.15
67131;HTU21D;54051;53.464;49.532;2023-02-11T00:36:11;-4.89;81.06
67131;HTU21D;54051;53.464;49.532;2023-02-11T00:38:37;-4.88;81.15
67131;HTU21D;54051;53.464;49.532;2023-02-11T00:41:03;-4.86;80.94
67131;HTU21D;54051;53.464;49.532;2023-02-11T00:43:29;-4.86;81.10
67131;HTU21D;54051;53.464;49.532;2023-02-11T00:45:55;-4.88;81.11
67131;HTU21D;54051;53.464;49.532;2023-02-11T00:48:20;-4.89;81.39
67131;HTU21D;54051;53.464;49.532;2023-02-11T00:50:46;-4.87;81.57
67131;HTU21D;54051;53.464;49.532;2023-02-11T00:53:12;-4.87;81.55
67131;HTU21D;54051;53.464;49.532;2023-02-11T00:55:38;-4.84;81.55
67131;HTU21D;54051;53.464;49.532;2023-02-11T00:58:04;-4.82;81.65
67131;HTU21D;54051;53.464;49.532;2023-02-11T01:00:29;-4.84;81.75
67131;HTU21D;54051;53.464;49.532;2023-02-11T01:02:55;-4.81;81.86
67131;HTU21D;54051;53.464;49.532;2023-02-11T01:05:21;-4.82;81.95
67131;HTU21D;54051;53.464;49.532;2023-02-11T01:07:47;-4.78;82.09
67131;HTU21D;54051;53.464;49.532;2023-02-11T01:10:13;-4.74;81.98
67131;HTU21D;54051;53.464;49.532;2023-02-11T01:12:38;-4.72;81.85
67131;HTU21D;54051;53.464;49.532;2023-02-11T01:15:05;-4.72;81.88
67131;HTU21D;54051;53.464;49.532;2023-02-11T01:17:32;-4.71;82.10
67131;HTU21D;54051;53.464;49.532;2023-02-11T01:19:58;-4.69;81.96
67131;HTU21D;54051;53.464;49.532;2023-02-11T01:22:24;-4.67;81.68
67131;HTU21D;54051;53.464;49.532;2023-02-11T01:24:49;-4.64;81.57
67131;HTU21D;54051;53.464;49.532;2023-02-11T01:27:15;-4.60;81.41
67131;HTU21D;54051;53.464;49.532;2023-02-11T01:29:41;-4.55;81.27
67131;HTU21D;54051;53.464;49.532;2023-02-11T01:32:07;-4.52;81.38
67131;HTU21D;54051;53.464;49.532;2023-02-11T01:34:33;-4.51;81.40
67131;HTU21D;54051;53.464;49.532;2023-02-11T01:36:58;-4.49;81.47
67131;HTU21D;54051;53.464;49.532;2023-02-11T01:39:25;-4.49;81.56
67131;HTU21D;54051;53.464;49.532;2023-02-11T01:41:51;-4.48;81.54
67131;HTU21D;54051;53.464;49.532;2023-02-11T01:47:09;-4.48;81.72
67131;HTU21D;54051;53.464;49.532;2023-02-11T01:52:29;-4.40;81.45
67131;HTU21D;54051;53.464;49.532;2023-02-11T01:54:57;-4.37;81.37
67131;HTU21D;54051;53.464;49.532;2023-02-11T01:57:44;-4.40;81.39
67131;HTU21D;54051;53.464;49.532;2023-02-11T02:00:17;-4.39;81.33
67131;HTU21D;54051;53.464;49.532;2023-02-11T02:03:08;-4.36;81.52
67131;HTU21D;54051;53.464;49.532;2023-02-11T02:08:18;-4.31;81.44
67131;HTU21D;54051;53.464;49.532;2023-02-11T02:10:46;-4.31;81.36
67131;HTU21D;54051;53.464;49.532;2023-02-11T02:13:13;-4.28;81.51
67131;HTU21D;54051;53.464;49.532;2023-02-11T02:23:18;-4.20;80.97
67131;HTU21D;54051;53.464;49.532;2023-02-11T02:34:18;-4.17;80.75
67131;HTU21D;54051;53.464;49.532;2023-02-11T02:36:58;-4.16;80.77
67131;HTU21D;54051;53.464;49.532;2023-02-11T02:39:29;-4.16;80.87
67131;HTU21D;54051;53.464;49.532;2023-02-11T02:41:56;-4.14;81.02
67131;HTU21D;54051;53.464;49.532;2023-02-11T02:44:22;-4.12;81.13
67131;HTU21D;54051;53.464;49.532;2023-02-11T02:46:48;-4.08;80.82
67131;HTU21D;54051;53.464;49.532;2023-02-11T02:49:15;-4.10;80.79
67131;HTU21D;54051;53.464;49.532;2023-02-11T03:02:35;-4.06;80.75
67131;HTU21D;54051;53.464;49.532;2023-02-11T03:05:03;-4.08;80.63
67131;HTU21D;54051;53.464;49.532;2023-02-11T03:10:05;-4.02;80.39
67131;HTU21D;54051;53.464;49.532;2023-02-11T03:12:32;-4.02;80.45
67131;HTU21D;54051;53.464;49.532;2023-02-11T03:14:59;-4.02;80.19
67131;HTU21D;54051;53.464;49.532;2023-02-11T03:17:27;-3.98;80.21
67131;HTU21D;54051;53.464;49.532;2023-02-11T03:19:53;-3.93;80.35
67131;HTU21D;54051;53.464;49.532;2023-02-11T03:22:21;-3.91;79.95
67131;HTU21D;54051;53.464;49.532;2023-02-11T03:24:49;-3.90;79.34
67131;HTU21D;54051;53.464;49.532;2023-02-11T03:27:19;-3.87;79.24
67131;HTU21D;54051;53.464;49.532;2023-02-11T03:30:10;-3.89;79.45
67131;HTU21D;54051;53.464;49.532;2023-02-11T03:32:36;-3.89;79.46
67131;HTU21D;54051;53.464;49.532;2023-02-11T03:35:06;-3.91;79.59
67131;HTU21D;54051;53.464;49.532;2023-02-11T03:40:20;-3.93;79.57
67131;HTU21D;54051;53.464;49.532;2023-02-11T03:42:57;-3.90;79.72
67131;HTU21D;54051;53.464;49.532;2023-02-11T03:45:24;-3.86;79.79
67131;HTU21D;54051;53.464;49.532;2023-02-11T03:47:53;-3.86;79.86
67131;HTU21D;54051;53.464;49.532;2023-02-11T03:50:20;-3.85;79.56
67131;HTU21D;54051;53.464;49.532;2023-02-11T03:52:46;-3.84;79.53
67131;HTU21D;54051;53.464;49.532;2023-02-11T03:55:14;-3.84;79.62
67131;HTU21D;54051;53.464;49.532;2023-02-11T03:57:41;-3.83;79.73
67131;HTU21D;54051;53.464;49.532;2023-02-11T04:00:07;-3.80;79.82
67131;HTU21D;54051;53.464;49.532;2023-02-11T04:02:34;-3.78;79.50
67131;HTU21D;54051;53.464;49.532;2023-02-11T04:05:00;-3.76;79.38
67131;HTU21D;54051;53.464;49.532;2023-02-11T04:07:26;-3.71;79.44
67131;HTU21D;54051;53.464;49.532;2023-02-11T04:09:52;-3.72;79.41
67131;HTU21D;54051;53.464;49.532;2023-02-11T04:12:18;-3.75;79.46
67131;HTU21D;54051;53.464;49.532;2023-02-11T04:14:44;-3.72;79.18
67131;HTU21D;54051;53.464;49.532;2023-02-11T04:17:10;-3.70;79.15
67131;HTU21D;54051;53.464;49.532;2023-02-11T04:19:36;-3.68;79.30
67131;HTU21D;54051;53.464;49.532;2023-02-11T04:22:02;-3.68;79.00
67131;HTU21D;54051;53.464;49.532;2023-02-11T04:24:28;-3.69;79.23
67131;HTU21D;54051;53.464;49.532;2023-02-11T04:26:54;-3.69;79.46
67131;HTU21D;54051;53.464;49.532;2023-02-11T04:29:20;-3.66;78.94
67131;HTU21D;54051;53.464;49.532;2023-02-11T04:31:46;-3.64;78.74
67131;HTU21D;54051;53.464;49.532;2023-02-11T04:34:12;-3.63;78.66
67131;HTU21D;54051;53.464;49.532;2023-02-11T04:36:38;-3.64;78.97
67131;HTU21D;54051;53.464;49.532;2023-02-11T04:39:04;-3.65;79.15
67131;HTU21D;54051;53.464;49.532;2023-02-11T04:41:29;-3.63;78.66
67131;HTU21D;54051;53.464;49.532;2023-02-11T04:43:55;-3.60;78.85
67131;HTU21D;54051;53.464;49.532;2023-02-11T04:46:21;-3.53;78.86
67131;HTU21D;54051;53.464;49.532;2023-02-11T04:48:47;-3.49;78.04
67131;HTU21D;54051;53.464;49.532;2023-02-11T04:51:13;-3.42;77.79
67131;HTU21D;54051;53.464;49.532;2023-02-11T04:53:39;-3.38;77.97
67131;HTU21D;54051;53.464;49.532;2023-02-11T04:56:04;-3.34;77.53
67131;HTU21D;54051;53.464;49.532;2023-02-11T04:58:30;-3.33;77.50
67131;HTU21D;54051;53.464;49.532;2023-02-11T05:01:03;-3.27;77.43
67131;HTU21D;54051;53.464;49.532;2023-02-11T05:03:29;-3.33;77.43
67131;HTU21D;54051;53.464;49.532;2023-02-11T05:05:55;-3.33;77.05
67131;HTU21D;54051;53.464;49.532;2023-02-11T05:08:21;-3.32;76.96
67131;HTU21D;54051;53.464;49.532;2023-02-11T05:10:46;-3.30;77.45
67131;HTU21D;54051;53.464;49.532;2023-02-11T05:13:12;-3.25;77.11
67131;HTU21D;54051;53.464;49.532;2023-02-11T05:15:38;-3.20;76.84
67131;HTU21D;54051;53.464;49.532;2023-02-11T05:18:04;-3.19;76.68
67131;HTU21D;54051;53.464;49.532;2023-02-11T05:20:29;-3.19;76.70
67131;HTU21D;54051;53.464;49.532;2023-02-11T05:22:55;-3.16;76.60
67131;HTU21D;54051;53.464;49.532;2023-02-11T05:25:21;-3.16;76.52
67131;HTU21D;54051;53.464;49.532;2023-02-11T05:27:47;-3.17;76.62
67131;HTU21D;54051;53.464;49.532;2023-02-11T05:30:13;-3.13;76.61
67131;HTU21D;54051;53.464;49.532;2023-02-11T05:32:39;-3.17;76.71
67131;HTU21D;54051;53.464;49.532;2023-02-11T05:35:05;-3.13;77.11
67131;HTU21D;54051;53.464;49.532;2023-02-11T05:37:31;-3.11;76.27
67131;HTU21D;54051;53.464;49.532;2023-02-11T05:39:56;-3.06;76.15
67131;HTU21D;54051;53.464;49.532;2023-02-11T05:42:22;-3.04;75.99
67131;HTU21D;54051;53.464;49.532;2023-02-11T05:44:48;-3.02;76.28
67131;HTU21D;54051;53.464;49.532;2023-02-11T05:47:14;-3.01;75.90
67131;HTU21D;54051;53.464;49.532;2023-02-11T05:49:39;-2.95;75.73
67131;HTU21D;54051;53.464;49.532;2023-02-11T05:52:05;-2.89;75.23
67131;HTU21D;54051;53.464;49.532;2023-02-11T05:54:31;-2.86;75.53
67131;HTU21D;54051;53.464;49.532;2023-02-11T05:56:57;-2.86;74.28
67131;HTU21D;54051;53.464;49.532;2023-02-11T05:59:22;-2.89;74.42
67131;HTU21D;54051;53.464;49.532;2023-02-11T06:01:48;-2.87;74.73
67131;HTU21D;54051;53.464;49.532;2023-02-11T06:04:14;-2.88;74.28
67131;HTU21D;54051;53.464;49.532;2023-02-11T06:06:40;-2.84;74.07
67131;HTU21D;54051;53.464;49.532;2023-02-11T06:09:05;-2.86;74.15
67131;HTU21D;54051;53.464;49.532;2023-02-11T06:11:31;-2.80;74.24
67131;HTU21D;54051;53.464;49.532;2023-02-11T06:13:57;-2.73;74.16
67131;HTU21D;54051;53.464;49.532;2023-02-11T06:16:23;-2.60;73.35
67131;HTU21D;54051;53.464;49.532;2023-02-11T06:18:49;-2.46;72.37
67131;HTU21D;54051;53.464;49.532;2023-02-11T06:21:15;-2.39;72.77
67131;HTU21D;54051;53.464;49.532;2023-02-11T06:23:40;-2.23;71.44
67131;HTU21D;54051;53.464;49.532;2023-02-11T06:26:17;-2.44;71.88
67131;HTU21D;54051;53.464;49.532;2023-02-11T06:28:43;-2.46;72.02
67131;HTU21D;54051;53.464;49.532;2023-02-11T06:31:09;-2.50;72.29
67131;HTU21D;54051;53.464;49.532;2023-02-11T06:33:36;-2.43;72.22
67131;HTU21D;54051;53.464;49.532;2023-02-11T06:36:02;-2.42;72.47
67131;HTU21D;54051;53.464;49.532;2023-02-11T06:38:28;-2.46;72.51
67131;HTU21D;54051;53.464;49.532;2023-02-11T06:40:54;-2.42;72.59
67131;HTU21D;54051;53.464;49.532;2023-02-11T06:43:20;-2.42;72.35
67131;HTU21D;54051;53.464;49.532;2023-02-11T06:45:51;-2.34;72.64
67131;HTU21D;54051;53.464;49.532;2023-02-11T06:48:16;-2.37;71.45
67131;HTU21D;54051;53.464;49.532;2023-02-11T06:50:42;-2.43;72.37
67131;HTU21D;54051;53.464;49.532;2023-02-11T06:53:08;-2.41;71.80
67131;HTU21D;54051;53.464;49.532;2023-02-11T06:55:34;-2.35;71.89
67131;HTU21D;54051;53.464;49.532;2023-02-11T06:58:00;-2.31;71.85
67131;HTU21D;54051;53.464;49.532;2023-02-11T07:00:25;-2.33;71.93
67131;HTU21D;54051;53.464;49.532;2023-02-11T07:02:53;-2.21;71.22
67131;HTU21D;54051;53.464;49.532;2023-02-11T07:05:19;-2.17;71.42
67131;HTU21D;54051;53.464;49.532;2023-02-11T07:07:45;-2.15;71.50
67131;HTU21D;54051;53.464;49.532;2023-02-11T07:10:10;-2.21;71.15
67131;HTU21D;54051;53.464;49.532;2023-02-11T07:12:36;-2.18;71.71
67131;HTU21D;54051;53.464;49.532;2023-02-11T07:15:02;-2.09;70.66
67131;HTU21D;54051;53.464;49.532;2023-02-11T07:17:28;-1.97;70.87
67131;HTU21D;54051;53.464;49.532;2023-02-11T07:19:54;-1.68;70.10
67131;HTU21D;54051;53.464;49.532;2023-02-11T07:22:20;-1.48;69.49
67131;HTU21D;54051;53.464;49.532;2023-02-11T07:24:46;-1.48;69.87
67131;HTU21D;54051;53.464;49.532;2023-02-11T07:27:12;-1.50;69.04
67131;HTU21D;54051;53.464;49.532;2023-02-11T07:29:37;-1.42;69.40
67131;HTU21D;54051;53.464;49.532;2023-02-11T07:32:04;-1.36;68.71
67131;HTU21D;54051;53.464;49.532;2023-02-11T07:34:30;-1.52;68.88
67131;HTU21D;54051;53.464;49.532;2023-02-11T07:36:55;-1.50;69.29
67131;HTU21D;54051;53.464;49.532;2023-02-11T07:39:21;-1.39;68.32
67131;HTU21D;54051;53.464;49.532;2023-02-11T07:41:47;-1.30;68.67
67131;HTU21D;54051;53.464;49.532;2023-02-11T07:44:13;-1.11;68.29
67131;HTU21D;54051;53.464;49.532;2023-02-11T07:46:39;-1.04;68.04
67131;HTU21D;54051;53.464;49.532;2023-02-11T07:49:10;-0.97;67.55
67131;HTU21D;54051;53.464;49.532;2023-02-11T07:51:35;-0.99;66.18
67131;HTU21D;54051;53.464;49.532;2023-02-11T07:54:01;-1.08;67.33
67131;HTU21D;54051;53.464;49.532;2023-02-11T07:56:27;-0.91;67.67
67131;HTU21D;54051;53.464;49.532;2023-02-11T07:58:53;-0.77;66.13
67131;HTU21D;54051;53.464;49.532;2023-02-11T08:01:21;-0.97;66.34
67131;HTU21D;54051;53.464;49.532;2023-02-11T08:03:49;-1.00;67.10
67131;HTU21D;54051;53.464;49.532;2023-02-11T08:06:16;-1.20;67.14
67131;HTU21D;54051;53.464;49.532;2023-02-11T08:08:42;-1.33;68.40
67131;HTU21D;54051;53.464;49.532;2023-02-11T08:11:12;-1.17;68.20
67131;HTU21D;54051;53.464;49.532;2023-02-11T08:13:38;-1.17;66.71
67131;HTU21D;54051;53.464;49.532;2023-02-11T08:16:04;-1.19;67.27
67131;HTU21D;54051;53.464;49.532;2023-02-11T08:18:31;-1.08;67.88
67131;HTU21D;54051;53.464;49.532;2023-02-11T08:21:06;-0.88;66.68
67131;HTU21D;54051;53.464;49.532;2023-02-11T08:23:34;-0.62;66.38
67131;HTU21D;54051;53.464;49.532;2023-02-11T08:26:01;-0.62;66.53
67131;HTU21D;54051;53.464;49.532;2023-02-11T08:28:27;-0.62;65.66
67131;HTU21D;54051;53.464;49.532;2023-02-11T08:30:53;-0.77;66.44
67131;HTU21D;54051;53.464;49.532;2023-02-11T08:33:19;-0.84;66.52
67131;HTU21D;54051;53.464;49.532;2023-02-11T08:35:45;-0.93;66.86
67131;HTU21D;54051;53.464;49.532;2023-02-11T08:38:11;-1.06;67.72
67131;HTU21D;54051;53.464;49.532;2023-02-11T08:40:36;-0.85;66.69
67131;HTU21D;54051;53.464;49.532;2023-02-11T08:43:02;-0.71;66.88
67131;HTU21D;54051;53.464;49.532;2023-02-11T08:45:28;-0.72;65.73
67131;HTU21D;54051;53.464;49.532;2023-02-11T08:47:54;-0.81;66.05
67131;HTU21D;54051;53.464;49.532;2023-02-11T08:50:20;-0.89;66.09
67131;HTU21D;54051;53.464;49.532;2023-02-11T08:52:46;-0.81;66.01
67131;HTU21D;54051;53.464;49.532;2023-02-11T08:55:11;-0.68;65.76
67131;HTU21D;54051;53.464;49.532;2023-02-11T08:57:37;-0.80;64.84
67131;HTU21D;54051;53.464;49.532;2023-02-11T09:00:03;-0.97;65.92
67131;HTU21D;54051;53.464;49.532;2023-02-11T09:02:29;-0.94;66.33
67131;HTU21D;54051;53.464;49.532;2023-02-11T09:04:55;-1.02;65.85
67131;HTU21D;54051;53.464;49.532;2023-02-11T09:07:20;-1.13;66.01
67131;HTU21D;54051;53.464;49.532;2023-02-11T09:09:46;-1.04;66.04
67131;HTU21D;54051;53.464;49.532;2023-02-11T09:12:12;-0.97;65.71
67131;HTU21D;54051;53.464;49.532;2023-02-11T09:14:38;-0.86;65.57
67131;HTU21D;54051;53.464;49.532;2023-02-11T09:17:04;-0.79;65.51
67131;HTU21D;54051;53.464;49.532;2023-02-11T09:19:30;-0.89;65.30
67131;HTU21D;54051;53.464;49.532;2023-02-11T09:21:55;-0.93;65.74
67131;HTU21D;54051;53.464;49.532;2023-02-11T09:24:21;-0.80;65.75
67131;HTU21D;54051;53.464;49.532;2023-02-11T09:26:47;-0.71;65.43
67131;HTU21D;54051;53.464;49.532;2023-02-11T09:29:14;-0.73;66.02
67131;HTU21D;54051;53.464;49.532;2023-02-11T09:31:39;-0.65;66.26
67131;HTU21D;54051;53.464;49.532;2023-02-11T09:34:05;-0.68;66.16
67131;HTU21D;54051;53.464;49.532;2023-02-11T09:36:33;-0.67;66.11
67131;HTU21D;54051;53.464;49.532;2023-02-11T09:39:00;-0.91;66.88
67131;HTU21D;54051;53.464;49.532;2023-02-11T09:43:57;-0.96;67.43
67131;HTU21D;54051;53.464;49.532;2023-02-11T09:46:29;-0.95;67.30
67131;HTU21D;54051;53.464;49.532;2023-02-11T09:48:55;-0.98;67.23
67131;HTU21D;54051;53.464;49.532;2023-02-11T09:54:00;-0.91;68.09
67131;HTU21D;54051;53.464;49.532;2023-02-11T09:56:28;-0.88;67.46
67131;HTU21D;54051;53.464;49.532;2023-02-11T09:58:54;-0.80;67.06
67131;HTU21D;54051;53.464;49.532;2023-02-11T10:01:35;-0.49;66.51
67131;HTU21D;54051;53.464;49.532;2023-02-11T10:04:12;-0.49;66.39
67131;HTU21D;54051;53.464;49.532;2023-02-11T10:06:46;-0.60;67.12
67131;HTU21D;54051;53.464;49.532;2023-02-11T10:22:05;-1.35;70.07
67131;HTU21D;54051;53.464;49.532;2023-02-11T10:24:28;-1.52;70.42
67131;HTU21D;54051;53.464;49.532;2023-02-11T10:26:54;-1.54;70.44
67131;HTU21D;54051;53.464;49.532;2023-02-11T10:31:46;-1.55;70.62
67131;HTU21D;54051;53.464;49.532;2023-02-11T10:34:12;-1.49;70.60
67131;HTU21D;54051;53.464;49.532;2023-02-11T10:36:40;-1.48;69.50
67131;HTU21D;54051;53.464;49.532;2023-02-11T10:39:20;-1.63;70.89
67131;HTU21D;54051;53.464;49.532;2023-02-11T10:41:49;-1.62;71.26
67131;HTU21D;54051;53.464;49.532;2023-02-11T10:44:21;-1.62;71.03
67131;HTU21D;54051;53.464;49.532;2023-02-11T10:46:47;-1.52;70.96
67131;HTU21D;54051;53.464;49.532;2023-02-11T10:49:31;-1.42;70.11
67131;HTU21D;54051;53.464;49.532;2023-02-11T10:54:55;-1.40;70.19
67131;HTU21D;54051;53.464;49.532;2023-02-11T10:57:21;-1.32;69.52
67131;HTU21D;54051;53.464;49.532;2023-02-11T10:59:47;-1.26;69.78
67131;HTU21D;54051;53.464;49.532;2023-02-11T11:02:20;-1.24;68.87
67131;HTU21D;54051;53.464;49.532;2023-02-11T11:04:48;-1.35;68.83
67131;HTU21D;54051;53.464;49.532;2023-02-11T11:09:44;-1.45;70.23
67131;HTU21D;54051;53.464;49.532;2023-02-11T11:12:32;-1.45;70.14
67131;HTU21D;54051;53.464;49.532;2023-02-11T11:14:58;-1.50;70.21
67131;HTU21D;54051;53.464;49.532;2023-02-11T11:17:24;-1.47;69.97
67131;HTU21D;54051;53.464;49.532;2023-02-11T11:20:02;-1.50;70.14
67131;HTU21D;54051;53.464;49.532;2023-02-11T11:22:38;-1.59;70.19
67131;HTU21D;54051;53.464;49.532;2023-02-11T11:25:04;-1.68;70.51
67131;HTU21D;54051;53.464;49.532;2023-02-11T11:27:30;-1.73;71.31
67131;HTU21D;54051;53.464;49.532;2023-02-11T11:29:57;-1.74;71.26
67131;HTU21D;54051;53.464;49.532;2023-02-11T11:32:26;-1.76;71.14
67131;HTU21D;54051;53.464;49.532;2023-02-11T11:34:54;-1.74;70.83
67131;HTU21D;54051;53.464;49.532;2023-02-11T11:37:24;-1.65;71.09
67131;HTU21D;54051;53.464;49.532;2023-02-11T11:42:29;-1.64;71.26
67131;HTU21D;54051;53.464;49.532;2023-02-11T11:45:03;-1.70;71.01
67131;HTU21D;54051;53.464;49.532;2023-02-11T11:47:46;-1.71;70.89
67131;HTU21D;54051;53.464;49.532;2023-02-11T11:55:18;-1.84;71.18
67131;HTU21D;54051;53.464;49.532;2023-02-11T11:57:45;-1.91;71.73
67131;HTU21D;54051;53.464;49.532;2023-02-11T12:05:41;-1.98;71.79
67131;HTU21D;54051;53.464;49.532;2023-02-11T12:08:16;-2.01;71.96
67131;HTU21D;54051;53.464;49.532;2023-02-11T12:13:33;-2.08;72.00
67131;HTU21D;54051;53.464;49.532;2023-02-11T12:16:05;-2.16;72.36
67131;HTU21D;54051;53.464;49.532;2023-02-11T12:18:55;-2.19;72.96
67131;HTU21D;54051;53.464;49.532;2023-02-11T12:21:35;-2.10;72.58
67131;HTU21D;54051;53.464;49.532;2023-02-11T12:31:55;-2.22;73.26
67131;HTU21D;54051;53.464;49.532;2023-02-11T12:44:53;-2.30;73.24
67131;HTU21D;54051;53.464;49.532;2023-02-11T12:53:03;-2.24;72.92
67131;HTU21D;54051;53.464;49.532;2023-02-11T12:55:33;-2.28;72.70
67131;HTU21D;54051;53.464;49.532;2023-02-11T12:58:01;-2.24;73.00
67131;HTU21D;54051;53.464;49.532;2023-02-11T13:00:39;-2.26;72.39
67131;HTU21D;54051;53.464;49.532;2023-02-11T13:03:42;-2.33;72.46
67131;HTU21D;54051;53.464;49.532;2023-02-11T13:06:00;-2.37;73.13
67131;HTU21D;54051;53.464;49.532;2023-02-11T13:08:32;-2.35;73.12
67131;HTU21D;54051;53.464;49.532;2023-02-11T13:11:20;-2.41;73.18
67131;HTU21D;54051;53.464;49.532;2023-02-11T13:18:53;-2.43;72.69
67131;HTU21D;54051;53.464;49.532;2023-02-11T13:21:30;-2.39;73.50
67131;HTU21D;54051;53.464;49.532;2023-02-11T13:27:04;-2.51;73.90
67131;HTU21D;54051;53.464;49.532;2023-02-11T13:32:11;-2.64;75.09
67131;HTU21D;54051;53.464;49.532;2023-02-11T13:37:12;-2.75;74.89
67131;HTU21D;54051;53.464;49.532;2023-02-11T13:39:54;-2.80;74.67
67131;HTU21D;54051;53.464;49.532;2023-02-11T13:42:20;-2.83;74.72
67131;HTU21D;54051;53.464;49.532;2023-02-11T13:44:49;-2.90;74.80
67131;HTU21D;54051;53.464;49.532;2023-02-11T13:47:25;-2.95;74.77
67131;HTU21D;54051;53.464;49.532;2023-02-11T13:49:55;-3.04;74.57
67131;HTU21D;54051;53.464;49.532;2023-02-11T13:52:32;-3.09;74.15
67131;HTU21D;54051;53.464;49.532;2023-02-11T13:55:13;-3.22;74.48
67131;HTU21D;54051;53.464;49.532;2023-02-11T13:57:44;-3.27;74.83
67131;HTU21D;54051;53.464;49.532;2023-02-11T14:08:58;-3.41;74.83
67131;HTU21D;54051;53.464;49.532;2023-02-11T14:22:14;-3.57;74.92
67131;HTU21D;54051;53.464;49.532;2023-02-11T14:27:28;-3.64;75.17
67131;HTU21D;54051;53.464;49.532;2023-02-11T14:30:06;-3.68;75.29
67131;HTU21D;54051;53.464;49.532;2023-02-11T14:35:26;-3.77;75.92
67131;HTU21D;54051;53.464;49.532;2023-02-11T14:40:45;-3.76;75.77
67131;HTU21D;54051;53.464;49.532;2023-02-11T14:43:15;-3.67;74.89
67131;HTU21D;54051;53.464;49.532;2023-02-11T14:45:44;-3.71;74.76
67131;HTU21D;54051;53.464;49.532;2023-02-11T14:48:16;-3.70;74.67
67131;HTU21D;54051;53.464;49.532;2023-02-11T14:50:44;-3.66;75.05
67131;HTU21D;54051;53.464;49.532;2023-02-11T14:53:20;-3.70;74.91
67131;HTU21D;54051;53.464;49.532;2023-02-11T14:55:47;-3.72;75.81
67131;HTU21D;54051;53.464;49.532;2023-02-11T14:58:28;-3.74;75.68
67131;HTU21D;54051;53.464;49.532;2023-02-11T15:00:58;-3.72;75.83
67131;HTU21D;54051;53.464;49.532;2023-02-11T15:03:35;-3.74;75.99
67131;HTU21D;54051;53.464;49.532;2023-02-11T15:06:05;-3.77;75.98
67131;HTU21D;54051;53.464;49.532;2023-02-11T15:08:33;-3.72;75.73
67131;HTU21D;54051;53.464;49.532;2023-02-11T15:11:00;-3.69;75.79
67131;HTU21D;54051;53.464;49.532;2023-02-11T15:13:26;-3.70;75.75
67131;HTU21D;54051;53.464;49.532;2023-02-11T15:15:59;-3.69;75.55
67131;HTU21D;54051;53.464;49.532;2023-02-11T15:18:30;-3.68;75.74
67131;HTU21D;54051;53.464;49.532;2023-02-11T15:20:57;-3.69;75.31
67131;HTU21D;54051;53.464;49.532;2023-02-11T15:23:26;-3.64;74.95
67131;HTU21D;54051;53.464;49.532;2023-02-11T15:25:52;-3.66;75.08
67131;HTU21D;54051;53.464;49.532;2023-02-11T15:28:25;-3.69;75.29
67131;HTU21D;54051;53.464;49.532;2023-02-11T15:30:58;-3.69;75.28
67131;HTU21D;54051;53.464;49.532;2023-02-11T15:33:24;-3.72;75.31
67131;HTU21D;54051;53.464;49.532;2023-02-11T15:35:50;-3.74;75.68
67131;HTU21D;54051;53.464;49.532;2023-02-11T15:38:16;-3.72;75.93
67131;HTU21D;54051;53.464;49.532;2023-02-11T15:40:53;-3.69;75.25
67131;HTU21D;54051;53.464;49.532;2023-02-11T15:43:19;-3.65;75.24
67131;HTU21D;54051;53.464;49.532;2023-02-11T15:48:22;-3.72;75.02
67131;HTU21D;54051;53.464;49.532;2023-02-11T15:50:53;-3.79;75.01
67131;HTU21D;54051;53.464;49.532;2023-02-11T15:53:24;-3.85;75.11
67131;HTU21D;54051;53.464;49.532;2023-02-11T15:55:53;-3.86;75.14
67131;HTU21D;54051;53.464;49.532;2023-02-11T15:58:19;-3.90;75.12
67131;HTU21D;54051;53.464;49.532;2023-02-11T16:00:47;-3.98;74.86
67131;HTU21D;54051;53.464;49.532;2023-02-11T16:03:18;-4.11;75.95
67131;HTU21D;54051;53.464;49.532;2023-02-11T16:05:50;-4.22;76.18
67131;HTU21D;54051;53.464;49.532;2023-02-11T16:08:36;-4.26;76.47
67131;HTU21D;54051;53.464;49.532;2023-02-11T16:11:06;-4.20;76.61
67131;HTU21D;54051;53.464;49.532;2023-02-11T16:13:46;-4.13;76.18
67131;HTU21D;54051;53.464;49.532;2023-02-11T16:16:19;-4.07;75.86
67131;HTU21D;54051;53.464;49.532;2023-02-11T16:18:49;-4.08;75.86
67131;HTU21D;54051;53.464;49.532;2023-02-11T16:21:18;-4.06;75.69
67131;HTU21D;54051;53.464;49.532;2023-02-11T16:26:49;-4.13;75.81
67131;HTU21D;54051;53.464;49.532;2023-02-11T16:29:17;-4.16;76.02
67131;HTU21D;54051;53.464;49.532;2023-02-11T16:32:15;-4.21;75.92
67131;HTU21D;54051;53.464;49.532;2023-02-11T16:34:41;-4.26;76.02
67131;HTU21D;54051;53.464;49.532;2023-02-11T16:37:07;-4.30;75.87
67131;HTU21D;54051;53.464;49.532;2023-02-11T16:39:33;-4.38;75.95
67131;HTU21D;54051;53.464;49.532;2023-02-11T16:42:02;-4.44;76.44
67131;HTU21D;54051;53.464;49.532;2023-02-11T16:44:28;-4.50;76.23
67131;HTU21D;54051;53.464;49.532;2023-02-11T16:46:55;-4.55;76.55
67131;HTU21D;54051;53.464;49.532;2023-02-11T16:49:29;-4.58;76.51
67131;HTU21D;54051;53.464;49.532;2023-02-11T16:52:17;-4.63;76.66
67131;HTU21D;54051;53.464;49.532;2023-02-11T16:54:41;-4.63;76.63
67131;HTU21D;54051;53.464;49.532;2023-02-11T16:57:08;-4.65;76.21
67131;HTU21D;54051;53.464;49.532;2023-02-11T16:59:37;-4.66;76.08
67131;HTU21D;54051;53.464;49.532;2023-02-11T17:02:03;-4.71;76.24
67131;HTU21D;54051;53.464;49.532;2023-02-11T17:04:29;-4.72;76.20
67131;HTU21D;54051;53.464;49.532;2023-02-11T17:06:57;-4.73;76.12
67131;HTU21D;54051;53.464;49.532;2023-02-11T17:09:24;-4.82;76.34
67131;HTU21D;54051;53.464;49.532;2023-02-11T17:11:50;-4.84;76.63
67131;HTU21D;54051;53.464;49.532;2023-02-11T17:14:17;-4.82;76.41
67131;HTU21D;54051;53.464;49.532;2023-02-11T17:16:43;-4.85;76.79
67131;HTU21D;54051;53.464;49.532;2023-02-11T17:19:13;-4.90;76.34
67131;HTU21D;54051;53.464;49.532;2023-02-11T17:21:42;-4.89;76.83
67131;HTU21D;54051;53.464;49.532;2023-02-11T17:24:09;-4.91;76.79
67131;HTU21D;54051;53.464;49.532;2023-02-11T17:26:35;-4.90;77.04
67131;HTU21D;54051;53.464;49.532;2023-02-11T17:29:03;-4.94;76.46
67131;HTU21D;54051;53.464;49.532;2023-02-11T17:31:30;-5.01;76.87
67131;HTU21D;54051;53.464;49.532;2023-02-11T17:33:55;-5.04;77.00
67131;HTU21D;54051;53.464;49.532;2023-02-11T17:36:21;-5.07;76.92
67131;HTU21D;54051;53.464;49.532;2023-02-11T17:38:47;-5.12;76.78
67131;HTU21D;54051;53.464;49.532;2023-02-11T17:41:13;-5.24;77.06
67131;HTU21D;54051;53.464;49.532;2023-02-11T17:43:39;-5.25;77.47